Time;durP1;ratioP1;P1;durP2;ratioP2;P2;SDS_P1;SDS_P2;PMS_P1;PMS_P2;Temp;Humidity;BMP_temperature;BMP_pressure;BME280_temperature;BME280_humidity;BME280_pressure;Samples;Min_cycle;Max_cycle;Signal;HPM_P1;HPM_P2
2020/12/23 00:00:14;;;;;;;2.60;1.33;;;;;;;19.12;49.65;101309.78;5004819;28;107899;-39
2020/12/23 00:02:42;;;;;;;1.90;1.60;;;;;;;19.14;49.69;101313.22;5023206;28;124567;-39
2020/12/23 00:05:14;;;;;;;3.65;1.90;;;;;;;19.12;49.64;101308.91;5020530;28;125026;-39
2020/12/23 00:07:41;;;;;;;1.90;1.40;;;;;;;19.14;49.74;101307.84;5023635;28;107951;-39
2020/12/23 00:10:09;;;;;;;2.60;1.50;;;;;;;19.13;49.72;101306.09;5017040;28;107169;-39
2020/12/23 00:12:37;;;;;;;1.50;1.30;;;;;;;19.12;49.80;101299.03;5022423;28;128056;-39
2020/12/23 00:15:06;;;;;;;1.80;1.40;;;;;;;19.11;49.76;101308.06;5013132;28;122910;-39
2020/12/23 00:17:34;;;;;;;2.03;1.55;;;;;;;19.12;49.72;101299.03;5022359;28;107637;-39
2020/12/23 00:20:01;;;;;;;1.95;1.48;;;;;;;19.12;49.71;101296.34;5023293;28;107450;-39
2020/12/23 00:22:27;;;;;;;1.80;1.50;;;;;;;19.10;49.85;101300.97;5025064;28;124191;-39
2020/12/23 00:24:54;;;;;;;3.35;1.90;;;;;;;19.11;49.70;101308.06;5015989;28;124324;-39
2020/12/23 00:27:21;;;;;;;2.10;1.80;;;;;;;19.09;49.60;101299.25;5018698;28;107446;-39
2020/12/23 00:29:49;;;;;;;2.03;1.60;;;;;;;19.10;49.71;101300.97;5017742;28;107497;-39
2020/12/23 00:32:17;;;;;;;1.95;1.70;;;;;;;19.11;49.79;101308.06;5017104;28;124037;-39
2020/12/23 00:34:44;;;;;;;2.13;1.55;;;;;;;19.11;49.72;101297.31;5019511;28;123830;-39
2020/12/23 00:37:11;;;;;;;1.80;1.45;;;;;;;19.17;49.72;101291.47;5025340;28;109153;-39
2020/12/23 00:39:38;;;;;;;1.75;1.40;;;;;;;19.20;49.44;101291.25;5002439;28;109186;-39
2020/12/23 00:42:04;;;;;;;2.53;1.60;;;;;;;19.23;49.49;101301.78;5018410;28;124023;-39
2020/12/23 00:44:31;;;;;;;2.20;1.60;;;;;;;19.28;49.52;101303.28;5016235;28;124417;-39
2020/12/23 00:46:59;;;;;;;2.30;1.70;;;;;;;19.30;49.40;101298.63;5019069;28;110151;-39
2020/12/23 00:49:26;;;;;;;2.38;1.73;;;;;;;19.30;49.51;101296.78;5017737;27;109566;-39
2020/12/23 00:51:53;;;;;;;2.78;1.80;;;;;;;19.31;49.33;101281.53;5013698;28;123173;-39
2020/12/23 00:54:19;;;;;;;1.75;1.52;;;;;;;19.33;49.33;101285.00;5015555;28;124207;-39
2020/12/23 00:56:46;;;;;;;2.55;1.80;;;;;;;19.31;49.46;101276.16;5021688;27;108497;-39
2020/12/23 00:59:13;;;;;;;2.08;1.70;;;;;;;19.30;49.36;101274.47;5016594;27;107808;-39
2020/12/23 01:01:40;;;;;;;2.33;1.60;;;;;;;19.28;49.37;101276.41;5017497;28;124033;-39
2020/12/23 01:04:08;;;;;;;2.60;2.03;;;;;;;19.28;49.49;101265.66;5016914;27;124706;-39
2020/12/23 01:06:35;;;;;;;2.10;1.70;;;;;;;19.31;49.28;101281.53;5019507;28;109582;-39
2020/12/23 01:09:02;;;;;;;2.22;1.67;;;;;;;19.31;49.40;101287.78;5019138;27;108025;-39
2020/12/23 01:11:29;;;;;;;2.72;1.80;;;;;;;19.32;49.31;101285.94;5013245;28;124903;-37
2020/12/23 01:13:55;;;;;;;2.60;1.90;;;;;;;19.33;49.46;101279.63;5013656;28;124761;-37
2020/12/23 01:16:22;;;;;;;2.03;1.73;;;;;;;19.33;49.53;101279.63;4998978;28;108438;-37
2020/12/23 01:18:50;;;;;;;3.03;2.30;;;;;;;19.33;49.28;101285.00;5024153;28;109298;-37
2020/12/23 01:21:17;;;;;;;2.13;1.63;;;;;;;19.33;49.41;101279.63;5021228;28;124290;-37
2020/12/23 01:23:44;;;;;;;3.42;2.00;;;;;;;19.31;49.34;101287.78;5017815;28;123336;-37
2020/12/23 01:26:11;;;;;;;3.17;2.15;;;;;;;19.31;49.51;101281.53;5024729;28;109117;-37
2020/12/23 01:28:38;;;;;;;3.58;2.25;;;;;;;19.30;49.46;101287.91;5022338;28;108891;-36
2020/12/23 01:31:05;;;;;;;2.97;2.20;;;;;;;19.29;49.59;101288.84;5023832;28;124403;-36
2020/12/23 01:33:32;;;;;;;2.58;1.90;;;;;;;19.25;49.61;101289.09;5017823;28;124297;-37
2020/12/23 01:35:59;;;;;;;2.90;2.20;;;;;;;19.25;49.58;101289.09;5023980;28;110558;-37
2020/12/23 01:38:26;;;;;;;2.58;1.90;;;;;;;19.24;49.71;101276.63;5020281;28;110446;-37
2020/12/23 01:40:56;;;;;;;3.10;2.22;;;;;;;19.22;49.62;101265.16;5019695;28;124780;-37
2020/12/23 01:43:23;;;;;;;3.30;2.22;;;;;;;19.23;49.64;101264.19;5019138;28;124031;-37
2020/12/23 01:45:50;;;;;;;3.15;2.30;;;;;;;19.22;49.56;101256.25;5018238;28;109060;-37
2020/12/23 01:48:20;;;;;;;2.67;2.05;;;;;;;19.22;49.97;101250.88;5018818;28;108873;-37
2020/12/23 01:50:48;;;;;;;3.80;2.10;;;;;;;19.21;49.58;101243.78;5019003;28;123945;-37
2020/12/23 01:53:16;;;;;;;2.70;2.25;;;;;;;19.19;49.65;101235.84;5020666;28;124432;-37
2020/12/23 01:55:47;;;;;;;4.35;2.60;;;;;;;19.21;49.59;101241.97;5021232;28;109994;-37
2020/12/23 01:58:14;;;;;;;2.92;2.40;;;;;;;19.22;49.67;101240.97;5023749;28;109288;-37
2020/12/23 02:00:41;;;;;;;3.13;2.30;;;;;;;19.22;49.77;101238.28;5016577;28;124399;-37
2020/12/23 02:03:11;;;;;;;3.25;2.88;;;;;;;19.23;49.52;101237.34;5019217;28;124482;-37
2020/12/23 02:05:40;;;;;;;3.25;2.28;;;;;;;19.28;49.59;101246.88;5022638;28;109281;-37
2020/12/23 02:08:10;;;;;;;2.80;2.42;;;;;;;19.32;49.61;101245.66;5024500;28;108631;-37
2020/12/23 02:10:40;;;;;;;3.72;2.53;;;;;;;19.34;49.38;101232.97;5027282;28;124165;-37
2020/12/23 02:13:09;;;;;;;4.57;3.30;;;;;;;19.36;49.29;101225.66;5017084;28;124202;-37
2020/12/23 02:15:36;;;;;;;3.60;2.60;;;;;;;19.38;49.15;101218.31;5018273;28;109249;-37
2020/12/23 02:18:03;;;;;;;3.15;2.30;;;;;;;19.40;49.23;101219.06;5009066;28;108185;-39
2020/12/23 02:20:30;;;;;;;3.00;2.30;;;;;;;19.41;49.27;101212.72;5019706;28;124093;-39
2020/12/23 02:22:57;;;;;;;4.68;3.28;;;;;;;19.40;49.19;101211.00;5073677;22;124222;-39
2020/12/23 02:25:23;;;;;;;3.17;2.60;;;;;;;19.41;49.25;101207.34;5035109;27;110492;-39
2020/12/23 02:27:50;;;;;;;2.88;2.30;;;;;;;19.41;49.37;101208.22;5035620;27;110261;-39
2020/12/23 02:30:17;;;;;;;3.30;2.33;;;;;;;19.42;49.33;101203.69;5033210;28;124805;-39
2020/12/23 02:32:44;;;;;;;3.70;2.58;;;;;;;19.40;49.26;101205.63;5033668;28;124027;-39
2020/12/23 02:35:11;;;;;;;3.17;2.63;;;;;;;19.39;49.17;101209.31;5034496;27;109495;-38
2020/12/23 02:37:38;;;;;;;3.05;2.50;;;;;;;19.40;49.20;101213.69;5032520;27;109189;-39
2020/12/23 02:40:07;;;;;;;4.10;2.60;;;;;;;19.38;49.46;101207.59;5032994;28;123403;-39
2020/12/23 02:42:33;;;;;;;3.90;2.30;;;;;;;19.38;49.42;101191.47;5036099;28;123683;-38
2020/12/23 02:45:00;;;;;;;3.20;2.40;;;;;;;19.39;49.41;101198.56;5033207;28;109206;-39
2020/12/23 02:47:27;;;;;;;3.13;2.50;;;;;;;19.40;49.54;101200.25;5035883;28;109151;-39
2020/12/23 02:49:53;;;;;;;3.80;2.50;;;;;;;19.39;49.47;101193.19;5034061;27;124469;-39
2020/12/23 02:52:20;;;;;;;3.40;2.70;;;;;;;19.39;49.28;101193.19;5031262;28;124707;-38
2020/12/23 02:54:46;;;;;;;3.40;2.83;;;;;;;19.39;49.49;101198.56;5031484;28;109715;-39
2020/12/23 02:57:13;;;;;;;3.88;2.88;;;;;;;19.38;49.31;101202.22;5031945;28;109043;-39
2020/12/23 02:59:40;;;;;;;5.07;2.88;;;;;;;19.38;49.44;101196.84;5031706;28;124548;-39
2020/12/23 03:02:07;;;;;;;3.10;2.60;;;;;;;19.38;49.43;101186.09;5034600;28;123947;-39
2020/12/23 03:04:34;;;;;;;3.67;2.65;;;;;;;19.40;49.50;101184.13;5033943;28;109258;-39
2020/12/23 03:07:01;;;;;;;3.47;2.78;;;;;;;19.38;49.43;101186.09;5035256;28;108767;-39
2020/12/23 03:09:28;;;;;;;3.88;2.60;;;;;;;19.38;49.37;101188.78;5029947;28;124346;-39
2020/12/23 03:11:55;;;;;;;3.03;2.70;;;;;;;19.37;49.47;101190.63;5034458;27;124237;-39
2020/12/23 03:14:21;;;;;;;3.47;2.90;;;;;;;19.37;49.47;101179.03;5029923;27;110284;-39
2020/12/23 03:16:48;;;;;;;3.38;2.50;;;;;;;19.37;49.45;101179.03;5034489;28;109868;-39
2020/12/23 03:19:14;;;;;;;3.92;2.83;;;;;;;19.37;49.47;101177.19;5031636;28;124753;-39
2020/12/23 03:21:41;;;;;;;3.72;2.70;;;;;;;19.38;49.54;101180.72;5031292;28;124567;-39
2020/12/23 03:24:07;;;;;;;3.33;2.78;;;;;;;19.39;49.27;101187.81;5031015;28;109211;-39
2020/12/23 03:26:34;;;;;;;3.25;2.60;;;;;;;19.38;49.41;101191.47;5031497;28;109298;-39
2020/12/23 03:29:01;;;;;;;3.33;2.90;;;;;;;19.39;49.35;101193.19;5029400;28;124112;-39
2020/12/23 03:31:29;;;;;;;3.05;2.65;;;;;;;19.39;49.41;101180.59;5030028;28;123614;-39
2020/12/23 03:33:56;;;;;;;3.78;2.88;;;;;;;19.39;49.39;101179.75;5031175;28;109350;-39
2020/12/23 03:36:23;;;;;;;3.88;2.75;;;;;;;19.39;49.29;101174.38;5034270;27;109026;-40
2020/12/23 03:38:50;;;;;;;3.13;2.55;;;;;;;19.40;49.53;101162.66;5023156;28;124447;-39
2020/12/23 03:41:17;;;;;;;3.20;2.50;;;;;;;19.41;49.38;101159.00;5030575;28;123678;-39
2020/12/23 03:43:44;;;;;;;4.78;2.92;;;;;;;19.42;49.45;101166.06;5029963;28;109572;-39
2020/12/23 03:46:11;;;;;;;4.03;2.70;;;;;;;19.43;49.24;101157.91;5030099;28;109282;-39
2020/12/23 03:48:38;;;;;;;3.08;2.67;;;;;;;19.45;49.26;101160.47;5033698;27;124176;-39
2020/12/23 03:51:05;;;;;;;3.50;2.50;;;;;;;19.47;49.29;101146.94;5031407;28;123962;-39
2020/12/23 03:53:32;;;;;;;4.35;2.85;;;;;;;19.46;49.29;101146.09;5028179;28;109787;-39
2020/12/23 03:55:58;;;;;;;4.20;2.90;;;;;;;19.47;49.31;101142.41;5031010;28;109016;-39
2020/12/23 03:58:25;;;;;;;4.25;2.90;;;;;;;19.47;49.27;101142.41;5033652;28;124052;-39
2020/12/23 04:00:52;;;;;;;3.33;2.50;;;;;;;19.47;49.41;101131.66;5032817;28;124832;-39
2020/12/23 04:03:18;;;;;;;3.17;2.60;;;;;;;19.48;49.23;101138.75;5032155;28;110321;-39
2020/12/23 04:05:45;;;;;;;3.20;2.53;;;;;;;19.47;49.22;101130.81;5030915;28;108895;-39
2020/12/23 04:08:11;;;;;;;4.63;2.33;;;;;;;19.44;49.29;101137.28;5032434;28;123569;-39
2020/12/23 04:10:38;;;;;;;3.20;2.53;;;;;;;19.42;49.51;101133.84;5027568;27;123668;-39
2020/12/23 04:13:05;;;;;;;3.83;3.38;;;;;;;19.41;49.49;101124.09;5032111;28;109433;-39
2020/12/23 04:15:31;;;;;;;3.00;2.63;;;;;;;19.42;49.48;101128.47;5033969;28;109362;-39
2020/12/23 04:17:58;;;;;;;3.63;2.78;;;;;;;19.42;49.40;101128.47;5033831;27;124388;-39
2020/12/23 04:20:25;;;;;;;3.30;2.38;;;;;;;19.42;49.27;101125.78;5032255;28;123919;-39
2020/12/23 04:22:51;;;;;;;3.35;2.60;;;;;;;19.42;49.42;101112.34;5032592;28;109243;-39
2020/12/23 04:25:18;;;;;;;3.08;2.35;;;;;;;19.42;49.42;101107.84;5030532;28;109310;-39
2020/12/23 04:27:45;;;;;;;4.25;2.30;;;;;;;19.43;49.33;101097.97;5032786;28;124083;-39
2020/12/23 04:30:11;;;;;;;2.97;2.40;;;;;;;19.44;49.36;101110.44;5033460;28;123842;-39
2020/12/23 04:32:38;;;;;;;3.20;2.35;;;;;;;19.44;49.31;101110.44;5031913;28;109481;-39
2020/12/23 04:35:05;;;;;;;3.08;2.20;;;;;;;19.44;49.40;101105.06;5029813;28;109337;-39
2020/12/23 04:37:34;;;;;;;2.90;2.30;;;;;;;19.45;49.32;101106.75;5032656;28;124358;-39
2020/12/23 04:40:05;;;;;;;3.03;2.33;;;;;;;19.43;49.26;101104.19;5030685;27;123907;-39
2020/12/23 04:42:33;;;;;;;3.53;2.20;;;;;;;19.44;49.30;101102.38;5027259;28;109597;-39
2020/12/23 04:45:01;;;;;;;2.65;2.25;;;;;;;19.44;49.32;101105.91;5028511;28;108711;-41
2020/12/23 04:47:30;;;;;;;2.63;2.03;;;;;;;19.44;49.27;101105.06;5029109;28;124658;-40
2020/12/23 04:49:57;;;;;;;2.92;2.30;;;;;;;19.43;49.45;101104.19;5031744;27;123993;-40
2020/12/23 04:52:32;;;;;;;2.50;2.00;;;;;;;19.44;49.32;101102.38;5036551;28;110925;-40
2020/12/23 04:55:00;;;;;;;2.38;2.10;;;;;;;19.44;49.62;101099.69;5036484;27;110281;-38
2020/12/23 04:57:28;;;;;;;2.40;2.20;;;;;;;19.43;49.33;101097.97;5031615;28;123178;-38
2020/12/23 04:59:55;;;;;;;3.22;2.30;;;;;;;19.44;49.33;101091.63;5032870;28;124575;-38
2020/12/23 05:02:26;;;;;;;2.33;1.90;;;;;;;19.44;49.49;101088.94;5035127;28;109315;-38
2020/12/23 05:04:53;;;;;;;2.33;1.70;;;;;;;19.44;49.40;101078.19;5035524;27;108746;-40
2020/12/23 05:07:21;;;;;;;2.72;1.90;;;;;;;19.44;49.36;101072.81;5034197;28;124772;-40
2020/12/23 05:09:48;;;;;;;2.45;1.83;;;;;;;19.43;49.38;101063.03;5032070;28;123222;-40
2020/12/23 05:12:19;;;;;;;2.05;1.75;;;;;;;19.42;49.39;101059.50;5030493;28;109603;-40
2020/12/23 05:14:47;;;;;;;2.17;1.77;;;;;;;19.46;49.32;101068.19;5033749;28;109025;-40
2020/12/23 05:17:16;;;;;;;2.47;2.05;;;;;;;19.46;49.46;101054.75;5034672;28;124811;-40
2020/12/23 05:19:45;;;;;;;2.63;2.00;;;;;;;19.49;49.37;101059.84;5031329;28;123825;-41
2020/12/23 05:22:15;;;;;;;1.77;1.60;;;;;;;19.50;49.42;101058.91;5033651;28;109402;-40
2020/12/23 05:24:42;;;;;;;2.50;1.95;;;;;;;19.51;49.33;101055.22;5031272;28;109286;-40
2020/12/23 05:27:08;;;;;;;2.20;1.90;;;;;;;19.54;49.19;101051.44;5030544;28;124731;-40
2020/12/23 05:29:35;;;;;;;2.10;1.75;;;;;;;19.53;49.28;101045.19;5033040;28;123908;-40
2020/12/23 05:32:04;;;;;;;1.90;1.70;;;;;;;19.53;49.21;101034.44;5034731;28;109583;-40
2020/12/23 05:34:33;;;;;;;2.08;1.77;;;;;;;19.53;49.12;101029.06;5031952;28;108275;-40
2020/12/23 05:37:01;;;;;;;2.10;1.77;;;;;;;19.53;49.32;101029.06;5036009;28;124629;-40
2020/12/23 05:39:31;;;;;;;2.40;1.83;;;;;;;19.54;49.26;101025.44;5034194;28;124316;-40
2020/12/23 05:41:59;;;;;;;2.80;1.55;;;;;;;19.53;49.31;101029.06;5035264;28;110194;-40
2020/12/23 05:44:27;;;;;;;1.95;1.65;;;;;;;19.51;49.48;101033.72;5033579;28;110465;-40
2020/12/23 05:46:54;;;;;;;1.90;1.50;;;;;;;19.50;49.45;101034.72;5029199;28;124143;-40
2020/12/23 05:49:23;;;;;;;2.40;1.90;;;;;;;19.51;49.35;101025.66;5035008;28;123986;-40
2020/12/23 05:51:51;;;;;;;2.88;1.70;;;;;;;19.51;49.45;101020.28;5034114;27;109241;-40
2020/12/23 05:54:20;;;;;;;2.22;1.73;;;;;;;19.52;49.33;101013.09;5036568;28;108931;-38
2020/12/23 05:56:51;;;;;;;2.25;1.77;;;;;;;19.49;49.35;101008.81;5032281;28;124177;-38
2020/12/23 05:59:19;;;;;;;2.08;1.40;;;;;;;19.50;49.36;101013.22;5036161;28;124312;-38
2020/12/23 06:01:45;;;;;;;2.53;1.77;;;;;;;19.50;49.26;101017.75;5035096;27;108906;-40
2020/12/23 06:04:14;;;;;;;1.88;1.38;;;;;;;19.50;49.35;101023.97;5029215;28;108896;-40
2020/12/23 06:07:04;;;;;;;2.25;1.75;;;;;;;19.50;49.40;101023.97;5033897;27;124240;-40
2020/12/23 06:09:36;;;;;;;1.77;1.50;;;;;;;19.50;49.29;101010.53;5033837;28;123676;-40
2020/12/23 06:12:30;;;;;;;1.65;1.40;;;;;;;19.50;49.29;101013.22;5034693;27;109990;-40
2020/12/23 06:14:58;;;;;;;2.13;1.63;;;;;;;19.50;49.25;101013.22;5030805;28;109276;-40
2020/12/23 06:17:26;;;;;;;1.75;1.60;;;;;;;19.52;49.31;101011.25;5031743;28;124213;-40
2020/12/23 06:19:56;;;;;;;1.75;1.35;;;;;;;19.52;49.28;101005.03;5034651;28;124046;-40
2020/12/23 06:22:25;;;;;;;1.75;1.20;;;;;;;19.52;49.32;100999.66;5036091;28;109105;-40
2020/12/23 06:24:52;;;;;;;1.85;1.52;;;;;;;19.53;49.31;100996.00;5030682;28;108889;-41
2020/12/23 06:27:19;;;;;;;1.85;1.50;;;;;;;19.52;49.25;101000.53;5035521;28;123870;-40
2020/12/23 06:29:47;;;;;;;1.90;1.42;;;;;;;19.53;49.41;101001.38;5027834;27;124188;-37
2020/12/23 06:32:22;;;;;;;1.70;1.33;;;;;;;19.53;49.34;100999.53;5033855;28;109977;-36
2020/12/23 06:35:00;;;;;;;1.65;1.40;;;;;;;19.52;49.44;101005.88;5032154;28;109849;-37
2020/12/23 06:37:30;;;;;;;2.95;1.40;;;;;;;19.52;49.40;101000.53;5033953;28;124036;-37
2020/12/23 06:39:58;;;;;;;1.80;1.15;;;;;;;19.52;49.41;101003.22;5035214;27;124154;-36
2020/12/23 06:42:31;;;;;;;2.30;1.45;;;;;;;19.52;49.26;101000.53;5030953;28;109602;-37
2020/12/23 06:45:05;;;;;;;1.60;1.30;;;;;;;19.52;49.37;101000.53;5029687;27;109029;-37
2020/12/23 06:47:35;;;;;;;1.80;1.40;;;;;;;19.52;49.31;101000.53;5029745;28;124380;-37
2020/12/23 06:50:05;;;;;;;1.70;1.30;;;;;;;19.53;49.34;101002.22;5033857;28;123826;-37
2020/12/23 06:52:37;;;;;;;1.63;1.30;;;;;;;19.54;49.42;100995.88;5032001;28;109014;-37
2020/12/23 06:55:08;;;;;;;1.48;1.13;;;;;;;19.56;49.37;100996.59;5032471;28;108857;-37
2020/12/23 06:57:38;;;;;;;2.28;1.48;;;;;;;19.58;49.34;101000.00;5032014;27;124461;-37
2020/12/23 07:00:05;;;;;;;1.40;1.30;;;;;;;19.57;49.23;100992.94;5029980;28;124327;-37
2020/12/23 07:02:43;;;;;;;1.90;1.40;;;;;;;19.58;49.20;100991.97;5033753;28;109609;-37
2020/12/23 07:05:12;;;;;;;1.40;1.00;;;;;;;19.61;49.27;100993.56;5029523;28;108967;-37
2020/12/23 07:07:42;;;;;;;1.70;1.30;;;;;;;19.60;49.42;101002.59;5033347;28;123517;-37
2020/12/23 07:10:18;;;;;;;1.60;1.20;;;;;;;19.60;49.32;100998.06;5032892;28;126634;-37
2020/12/23 07:12:48;;;;;;;1.73;1.30;;;;;;;19.61;49.35;101005.16;5031190;27;109404;-37
2020/12/23 07:15:23;;;;;;;1.48;1.30;;;;;;;19.59;49.36;101001.75;5030202;28;109145;-37
2020/12/23 07:17:53;;;;;;;;;;;;;;;19.59;49.18;101001.75;5033495;28;124356;-37
2020/12/23 07:20:24;;;;;;;1.50;1.20;;;;;;;19.58;49.37;101010.75;5033916;28;124249;-37
2020/12/23 07:22:53;;;;;;;2.20;1.30;;;;;;;19.57;49.26;100998.31;5031293;28;110556;-37
2020/12/23 07:25:26;;;;;;;1.10;1.00;;;;;;;19.57;49.36;101009.06;5035134;28;110358;-37
2020/12/23 07:27:59;;;;;;;1.45;1.20;;;;;;;19.59;49.62;101007.13;5029706;28;125033;-37
2020/12/23 07:30:26;;;;;;;1.80;1.35;;;;;;;19.58;49.36;101005.38;5029788;28;124249;-37
2020/12/23 07:33:05;;;;;;;1.48;1.10;;;;;;;19.59;49.22;101009.81;5030209;28;109085;-37
2020/12/23 07:35:32;;;;;;;1.83;1.20;;;;;;;19.59;49.49;101009.81;5032396;28;109069;-34
2020/12/23 07:38:00;;;;;;;1.35;1.25;;;;;;;19.58;49.32;101004.53;5033932;27;123886;-34
2020/12/23 07:40:28;;;;;;;1.20;1.10;;;;;;;19.59;49.51;101004.44;5031424;27;123921;-36
2020/12/23 07:42:57;;;;;;;1.45;1.35;;;;;;;19.58;49.29;101005.38;5030713;28;110214;-37
2020/12/23 07:45:26;;;;;;;1.80;1.20;;;;;;;19.58;49.45;101004.53;5030049;28;108976;-37
2020/12/23 07:48:04;;;;;;;1.05;0.95;;;;;;;19.59;49.49;101007.13;5029512;28;124091;-37
2020/12/23 07:50:42;;;;;;;1.50;1.20;;;;;;;19.58;49.30;101000.00;5028958;28;124075;-37
2020/12/23 07:53:20;;;;;;;2.17;1.98;;;;;;;19.58;49.38;101000.00;5032132;28;109543;-37
2020/12/23 07:56:06;;;;;;;1.27;1.15;;;;;;;19.56;49.44;100996.59;5031042;28;108985;-37
2020/12/23 07:58:34;;;;;;;1.30;1.20;;;;;;;19.57;49.49;100998.31;5032826;28;124129;-37
2020/12/23 08:01:02;;;;;;;1.30;1.00;;;;;;;19.57;49.72;100998.31;5014835;28;122751;-37
2020/12/23 08:03:32;;;;;;;5.30;1.08;;;;;;;19.56;49.55;100999.28;5031540;28;109174;-37
2020/12/23 08:06:08;;;;;;;2.47;1.52;;;;;;;19.55;49.64;100994.91;5028989;28;108879;-37
2020/12/23 08:08:36;;;;;;;1.98;1.20;;;;;;;19.57;49.84;100997.44;5032516;27;124671;-37
2020/12/23 08:11:10;;;;;;;3.17;1.40;;;;;;;19.56;49.72;100996.59;5031035;28;124735;-37
2020/12/23 08:13:38;;;;;;;1.97;1.00;;;;;;;19.59;49.85;100996.38;5030140;28;110786;-37
2020/12/23 08:16:11;;;;;;;1.30;1.10;;;;;;;19.59;49.66;100991.00;5032369;28;109715;-37
2020/12/23 08:18:39;;;;;;;1.30;0.95;;;;;;;19.60;49.63;100987.31;5032357;28;123502;-37
2020/12/23 08:21:17;;;;;;;1.55;1.05;;;;;;;19.60;49.69;100992.69;5031535;28;123846;-37
2020/12/23 08:23:46;;;;;;;2.10;1.00;;;;;;;19.60;49.95;100992.69;4990334;28;109451;-41
2020/12/23 08:26:14;;;;;;;3.15;1.10;;;;;;;19.60;49.73;100992.69;4990796;28;108774;-41
2020/12/23 08:28:47;;;;;;;1.45;1.00;;;;;;;19.61;49.79;100989.03;4993109;28;124252;-41
2020/12/23 08:31:16;;;;;;;1.10;0.90;;;;;;;19.64;49.57;100999.50;5001778;28;125393;-41
2020/12/23 08:33:45;;;;;;;1.17;1.08;;;;;;;19.67;49.77;100990.38;5011890;28;109552;-41
2020/12/23 08:36:11;;;;;;;1.75;1.10;;;;;;;19.68;49.61;100996.59;5013288;28;109373;-41
2020/12/23 08:38:43;;;;;;;0.98;0.80;;;;;;;19.69;49.52;100984.88;5012337;28;124321;-41
2020/12/23 08:41:17;;;;;;;1.00;0.77;;;;;;;19.68;49.46;100993.91;5012175;28;124249;-41
2020/12/23 08:43:47;;;;;;;1.63;1.05;;;;;;;19.69;49.67;100980.34;4990346;28;109164;-41
2020/12/23 08:46:42;;;;;;;1.40;0.95;;;;;;;19.70;49.63;100982.03;5013321;28;108869;-41
2020/12/23 08:49:09;;;;;;;1.23;0.80;;;;;;;19.67;49.61;100982.31;5009989;28;124191;-41
2020/12/23 08:51:36;;;;;;;2.08;0.90;;;;;;;19.67;49.53;100986.84;5012270;28;124746;-41
2020/12/23 08:54:14;;;;;;;1.02;0.80;;;;;;;19.64;49.58;100980.69;5012842;28;109674;-41
2020/12/23 09:18:57;;;;;;;3.30;0.75;;;;;;;21.04;47.00;100984.34;5053000;27;96513;-47
2020/12/23 09:21:24;;;;;;;4.30;0.75;;;;;;;20.83;47.76;100975.41;5038230;27;107007;-45
2020/12/23 09:23:50;;;;;;;3.92;1.10;;;;;;;20.73;47.84;100981.59;5019796;27;124393;-51
2020/12/23 09:26:17;;;;;;;5.40;1.10;;;;;;;20.76;47.79;100970.56;5023672;28;123939;-53
2020/12/23 10:07:48;;;;;;;1.88;0.98;;;;;;;21.53;46.50;100915.34;5045724;27;96500;-45
2020/12/23 10:10:15;;;;;;;7.72;1.10;;;;;;;21.52;46.51;100910.94;5027917;27;107316;-45
2020/12/23 10:12:41;;;;;;;3.65;1.00;;;;;;;21.56;46.44;100904.28;5032570;27;124216;-45
2020/12/23 10:15:08;;;;;;;3.17;1.00;;;;;;;21.48;46.53;100901.44;5029930;27;123871;-45
2020/12/23 10:17:36;;;;;;;3.38;1.05;;;;;;;21.67;50.68;100888.97;5034150;27;107156;-44
2020/12/23 10:20:05;;;;;;;4.28;1.05;;;;;;;21.94;52.94;100890.97;5037652;27;108931;-53
2020/12/23 10:22:32;;;;;;;3.67;1.20;;;;;;;22.11;53.08;100881.31;5044289;27;124398;-53
2020/12/23 10:24:58;;;;;;;4.50;0.80;;;;;;;22.25;52.81;100885.44;5042153;27;124131;-52
2020/12/23 10:27:26;;;;;;;2.70;0.77;;;;;;;22.35;52.54;100873.63;5033051;27;108143;-52
2020/12/23 10:29:52;;;;;;;3.33;0.88;;;;;;;22.45;52.24;100868.25;5042840;27;107408;-53
2020/12/23 10:32:20;;;;;;;3.10;1.08;;;;;;;22.52;51.89;100855.84;5044494;27;124452;-53
2020/12/23 10:34:46;;;;;;;2.67;1.00;;;;;;;22.61;51.69;100855.97;5034940;27;123699;-53
2020/12/23 10:37:19;;;;;;;3.80;0.90;;;;;;;22.66;51.28;100854.53;5030843;27;107751;-53
2020/12/23 10:39:56;;;;;;;4.20;1.00;;;;;;;22.72;51.35;100859.34;5032385;27;107267;-53
2020/12/23 10:42:27;;;;;;;2.22;0.70;;;;;;;22.77;50.81;100844.53;5032195;27;124858;-53
2020/12/23 10:44:54;;;;;;;1.50;0.75;;;;;;;22.80;50.91;100839.69;5033317;27;124509;-52
2020/12/23 10:47:31;;;;;;;1.80;0.75;;;;;;;22.84;50.61;100835.69;5038519;27;107311;-52
2020/12/23 10:50:02;;;;;;;3.33;0.85;;;;;;;22.86;50.22;100828.28;5031379;27;107096;-52
2020/12/23 10:52:28;;;;;;;3.08;0.80;;;;;;;22.90;50.39;100823.44;5031698;27;124775;-53
2020/12/23 10:54:56;;;;;;;4.53;1.05;;;;;;;22.92;50.16;100821.44;5034285;27;124237;-53
2020/12/23 10:57:23;;;;;;;1.60;0.63;;;;;;;22.94;49.95;100808.63;5041442;27;107475;-53
2020/12/23 10:59:50;;;;;;;2.28;0.70;;;;;;;22.96;49.74;100806.63;5032162;27;107287;-53
2020/12/23 11:02:17;;;;;;;1.23;0.70;;;;;;;22.98;49.71;100798.38;5035451;27;124621;-55
2020/12/23 11:04:46;;;;;;;4.20;0.75;;;;;;;23.00;49.45;100801.75;5041995;27;124657;-55
2020/12/23 11:07:13;;;;;;;2.25;0.90;;;;;;;23.01;49.40;100788.13;5044880;27;107509;-54
2020/12/23 11:09:40;;;;;;;3.30;0.90;;;;;;;23.02;49.41;100783.56;5040673;27;107522;-55
2020/12/23 11:12:07;;;;;;;4.40;0.80;;;;;;;23.03;49.27;100774.47;5033419;27;124130;-54
2020/12/23 11:14:33;;;;;;;1.80;0.65;;;;;;;23.03;49.25;100764.53;5033801;27;124775;-54
2020/12/23 11:17:00;;;;;;;2.60;0.90;;;;;;;23.03;49.03;100769.94;5029172;27;107436;-52
2020/12/23 11:19:27;;;;;;;1.90;0.80;;;;;;;23.05;48.98;100762.53;5031092;28;107112;-52
2020/12/23 11:21:53;;;;;;;1.55;0.80;;;;;;;23.05;48.82;100762.53;5024395;28;124466;-52
2020/12/23 11:24:20;;;;;;;1.30;0.90;;;;;;;23.06;48.84;100758.84;5025306;27;123302;-52
2020/12/23 11:26:48;;;;;;;1.65;0.70;;;;;;;23.08;48.73;100756.81;5026546;27;107680;-52
2020/12/23 11:29:15;;;;;;;1.77;0.70;;;;;;;23.08;48.81;100745.19;5029703;28;106918;-45
2020/12/23 11:31:42;;;;;;;1.15;0.60;;;;;;;23.04;48.90;100744.63;5032787;27;124260;-48
2020/12/23 11:34:08;;;;;;;2.55;0.90;;;;;;;23.03;48.99;100748.31;5019888;27;123944;-46
2020/12/23 11:36:35;;;;;;;4.72;0.80;;;;;;;23.03;49.09;100737.50;5020914;27;107521;-45
2020/12/23 11:39:02;;;;;;;3.25;0.77;;;;;;;23.03;48.95;100740.22;5020338;28;107780;-45
2020/12/23 11:41:29;;;;;;;2.33;0.90;;;;;;;23.03;49.01;100737.50;5019239;27;124269;-45
2020/12/23 11:43:55;;;;;;;2.58;0.80;;;;;;;23.03;48.89;100734.81;5014271;27;124212;-47
2020/12/23 11:46:22;;;;;;;2.58;0.80;;;;;;;23.04;48.88;100733.81;5016885;28;108837;-48
2020/12/23 11:48:49;;;;;;;4.20;0.80;;;;;;;23.05;49.08;100740.91;5032433;27;107066;-46
2020/12/23 11:51:15;;;;;;;3.15;0.73;;;;;;;23.04;49.09;100733.81;5017211;27;124235;-46
2020/12/23 11:53:43;;;;;;;2.30;0.70;;;;;;;23.06;48.84;100737.22;5017329;27;123761;-45
2020/12/23 11:56:11;;;;;;;2.58;0.80;;;;;;;23.06;48.82;100742.63;5024410;27;107635;-46
2020/12/23 11:58:38;;;;;;;1.60;0.70;;;;;;;23.07;48.92;100736.19;5025626;27;107325;-46
2020/12/23 12:01:04;;;;;;;2.55;0.60;;;;;;;23.06;48.83;100737.22;5019659;28;124167;-47
2020/12/23 12:03:31;;;;;;;1.23;0.77;;;;;;;23.07;48.88;100738.91;5014861;27;124800;-47
2020/12/23 12:05:58;;;;;;;1.23;0.60;;;;;;;23.07;48.65;100738.91;5022428;28;107510;-46
2020/12/23 12:08:25;;;;;;;2.60;0.80;;;;;;;23.06;48.71;100729.13;5029030;27;107607;-46
2020/12/23 12:10:55;;;;;;;1.05;0.50;;;;;;;23.06;48.58;100718.31;5020074;27;124842;-47
2020/12/23 12:13:23;;;;;;;2.58;0.80;;;;;;;23.07;48.51;100713.75;5015160;28;123864;-47
2020/12/23 12:15:49;;;;;;;1.00;0.70;;;;;;;23.07;48.74;100711.88;5023786;27;107859;-47
2020/12/23 12:18:16;;;;;;;0.82;0.57;;;;;;;23.07;48.65;100706.47;5016183;27;107620;-47
2020/12/23 12:20:43;;;;;;;0.98;0.63;;;;;;;23.06;48.39;100709.38;5015557;27;124316;-47
2020/12/23 12:23:10;;;;;;;1.27;0.98;;;;;;;23.05;48.51;100703.09;5015156;27;123752;-48